sensor_id;sensor_type;location;lat;lon;timestamp;P1;durP1;ratioP1;P2;durP2;ratioP2
20639;SDS011;10479;53.524;9.846;2022-12-07T00:01:24;65.50;;;26.55;;
20639;SDS011;10479;53.524;9.846;2022-12-07T00:03:53;56.80;;;22.88;;
20639;SDS011;10479;53.524;9.846;2022-12-07T00:06:23;60.38;;;24.00;;
20639;SDS011;10479;53.524;9.846;2022-12-07T00:08:50;60.10;;;24.95;;
20639;SDS011;10479;53.524;9.846;2022-12-07T00:11:18;61.25;;;23.52;;
20639;SDS011;10479;53.524;9.846;2022-12-07T00:13:58;58.28;;;23.88;;
20639;SDS011;10479;53.524;9.846;2022-12-07T00:16:45;57.15;;;23.55;;
20639;SDS011;10479;53.524;9.846;2022-12-07T00:19:19;60.20;;;22.65;;
20639;SDS011;10479;53.524;9.846;2022-12-07T00:21:49;56.42;;;23.90;;
20639;SDS011;10479;53.524;9.846;2022-12-07T00:24:34;58.55;;;23.88;;
20639;SDS011;10479;53.524;9.846;2022-12-07T00:27:13;56.38;;;22.80;;
20639;SDS011;10479;53.524;9.846;2022-12-07T00:29:40;58.42;;;24.58;;
20639;SDS011;10479;53.524;9.846;2022-12-07T00:32:26;59.30;;;22.52;;
20639;SDS011;10479;53.524;9.846;2022-12-07T00:35:11;54.72;;;21.55;;
20639;SDS011;10479;53.524;9.846;2022-12-07T00:37:41;58.13;;;22.25;;
20639;SDS011;10479;53.524;9.846;2022-12-07T00:40:26;56.70;;;20.30;;
20639;SDS011;10479;53.524;9.846;2022-12-07T00:42:55;50.90;;;20.95;;
20639;SDS011;10479;53.524;9.846;2022-12-07T00:45:22;51.00;;;21.58;;
20639;SDS011;10479;53.524;9.846;2022-12-07T00:47:57;51.13;;;19.50;;
20639;SDS011;10479;53.524;9.846;2022-12-07T00:50:23;49.55;;;19.65;;
20639;SDS011;10479;53.524;9.846;2022-12-07T00:52:51;51.40;;;19.80;;
20639;SDS011;10479;53.524;9.846;2022-12-07T00:55:20;46.72;;;18.42;;
20639;SDS011;10479;53.524;9.846;2022-12-07T00:58:06;47.20;;;17.23;;
20639;SDS011;10479;53.524;9.846;2022-12-07T01:00:40;42.88;;;16.95;;
20639;SDS011;10479;53.524;9.846;2022-12-07T01:03:12;41.45;;;17.35;;
20639;SDS011;10479;53.524;9.846;2022-12-07T01:05:48;44.90;;;17.77;;
20639;SDS011;10479;53.524;9.846;2022-12-07T01:08:34;48.15;;;17.85;;
20639;SDS011;10479;53.524;9.846;2022-12-07T01:11:05;49.33;;;17.85;;
20639;SDS011;10479;53.524;9.846;2022-12-07T01:13:52;47.60;;;17.70;;
20639;SDS011;10479;53.524;9.846;2022-12-07T01:16:38;41.50;;;15.95;;
20639;SDS011;10479;53.524;9.846;2022-12-07T01:19:23;44.78;;;17.70;;
20639;SDS011;10479;53.524;9.846;2022-12-07T01:22:02;40.70;;;16.73;;
20639;SDS011;10479;53.524;9.846;2022-12-07T01:24:39;49.75;;;17.40;;
20639;SDS011;10479;53.524;9.846;2022-12-07T01:27:24;51.58;;;17.85;;
20639;SDS011;10479;53.524;9.846;2022-12-07T01:30:10;50.05;;;17.77;;
20639;SDS011;10479;53.524;9.846;2022-12-07T01:32:56;49.33;;;18.25;;
20639;SDS011;10479;53.524;9.846;2022-12-07T01:35:24;49.65;;;17.33;;
20639;SDS011;10479;53.524;9.846;2022-12-07T01:37:52;46.72;;;17.70;;
20639;SDS011;10479;53.524;9.846;2022-12-07T01:40:22;49.42;;;17.67;;
20639;SDS011;10479;53.524;9.846;2022-12-07T01:42:54;48.10;;;17.08;;
20639;SDS011;10479;53.524;9.846;2022-12-07T01:45:40;45.17;;;17.73;;
20639;SDS011;10479;53.524;9.846;2022-12-07T01:48:16;46.80;;;16.63;;
20639;SDS011;10479;53.524;9.846;2022-12-07T01:51:00;45.42;;;16.10;;
20639;SDS011;10479;53.524;9.846;2022-12-07T01:53:47;44.00;;;16.35;;
20639;SDS011;10479;53.524;9.846;2022-12-07T01:56:24;45.85;;;16.35;;
20639;SDS011;10479;53.524;9.846;2022-12-07T01:59:11;47.70;;;14.85;;
20639;SDS011;10479;53.524;9.846;2022-12-07T02:01:56;48.47;;;16.70;;
20639;SDS011;10479;53.524;9.846;2022-12-07T02:04:38;46.83;;;15.85;;
20639;SDS011;10479;53.524;9.846;2022-12-07T02:07:24;44.75;;;15.40;;
20639;SDS011;10479;53.524;9.846;2022-12-07T02:10:32;41.03;;;15.50;;
20639;SDS011;10479;53.524;9.846;2022-12-07T02:13:11;43.30;;;15.50;;
20639;SDS011;10479;53.524;9.846;2022-12-07T02:22:39;42.30;;;14.82;;
20639;SDS011;10479;53.524;9.846;2022-12-07T02:27:50;40.58;;;14.40;;
20639;SDS011;10479;53.524;9.846;2022-12-07T02:30:20;44.78;;;13.70;;
20639;SDS011;10479;53.524;9.846;2022-12-07T02:41:30;37.47;;;13.30;;
20639;SDS011;10479;53.524;9.846;2022-12-07T02:44:12;37.05;;;11.95;;
20639;SDS011;10479;53.524;9.846;2022-12-07T02:47:04;32.78;;;11.30;;
20639;SDS011;10479;53.524;9.846;2022-12-07T02:49:49;34.97;;;11.00;;
20639;SDS011;10479;53.524;9.846;2022-12-07T02:52:35;37.85;;;11.07;;
20639;SDS011;10479;53.524;9.846;2022-12-07T02:55:22;27.70;;;9.27;;
20639;SDS011;10479;53.524;9.846;2022-12-07T02:58:16;32.65;;;9.38;;
20639;SDS011;10479;53.524;9.846;2022-12-07T03:01:41;30.50;;;10.43;;
20639;SDS011;10479;53.524;9.846;2022-12-07T03:04:50;24.90;;;8.57;;
20639;SDS011;10479;53.524;9.846;2022-12-07T03:16:08;19.85;;;5.72;;
20639;SDS011;10479;53.524;9.846;2022-12-07T03:19:09;17.67;;;6.30;;
20639;SDS011;10479;53.524;9.846;2022-12-07T03:22:02;19.75;;;5.53;;
20639;SDS011;10479;53.524;9.846;2022-12-07T03:24:52;15.27;;;5.30;;
20639;SDS011;10479;53.524;9.846;2022-12-07T03:27:32;16.70;;;4.80;;
20639;SDS011;10479;53.524;9.846;2022-12-07T03:30:39;12.40;;;4.53;;
20639;SDS011;10479;53.524;9.846;2022-12-07T03:33:33;20.73;;;4.50;;
20639;SDS011;10479;53.524;9.846;2022-12-07T03:37:12;19.98;;;5.03;;
20639;SDS011;10479;53.524;9.846;2022-12-07T03:43:01;17.95;;;4.57;;
20639;SDS011;10479;53.524;9.846;2022-12-07T03:45:58;14.45;;;4.60;;
20639;SDS011;10479;53.524;9.846;2022-12-07T03:54:37;17.95;;;4.72;;
20639;SDS011;10479;53.524;9.846;2022-12-07T03:57:10;13.88;;;3.58;;
20639;SDS011;10479;53.524;9.846;2022-12-07T03:59:57;13.20;;;3.53;;
20639;SDS011;10479;53.524;9.846;2022-12-07T04:02:42;13.57;;;3.05;;
20639;SDS011;10479;53.524;9.846;2022-12-07T04:05:28;17.20;;;3.78;;
20639;SDS011;10479;53.524;9.846;2022-12-07T04:08:13;14.20;;;3.40;;
20639;SDS011;10479;53.524;9.846;2022-12-07T04:10:44;15.15;;;3.03;;
20639;SDS011;10479;53.524;9.846;2022-12-07T04:13:14;13.93;;;3.20;;
20639;SDS011;10479;53.524;9.846;2022-12-07T04:15:46;9.45;;;2.38;;
20639;SDS011;10479;53.524;9.846;2022-12-07T04:18:19;14.82;;;2.55;;
20639;SDS011;10479;53.524;9.846;2022-12-07T04:20:49;9.07;;;2.58;;
20639;SDS011;10479;53.524;9.846;2022-12-07T04:23:35;9.52;;;3.28;;
20639;SDS011;10479;53.524;9.846;2022-12-07T04:26:06;14.15;;;3.72;;
20639;SDS011;10479;53.524;9.846;2022-12-07T04:28:51;11.48;;;2.70;;
20639;SDS011;10479;53.524;9.846;2022-12-07T04:31:37;11.30;;;2.50;;
20639;SDS011;10479;53.524;9.846;2022-12-07T04:34:21;9.27;;;2.83;;
20639;SDS011;10479;53.524;9.846;2022-12-07T04:36:54;11.93;;;2.90;;
20639;SDS011;10479;53.524;9.846;2022-12-07T04:39:25;8.23;;;2.90;;
20639;SDS011;10479;53.524;9.846;2022-12-07T04:42:01;9.55;;;2.55;;
20639;SDS011;10479;53.524;9.846;2022-12-07T04:44:47;10.35;;;2.58;;
20639;SDS011;10479;53.524;9.846;2022-12-07T04:47:20;13.15;;;4.10;;
20639;SDS011;10479;53.524;9.846;2022-12-07T04:50:05;13.88;;;3.47;;
20639;SDS011;10479;53.524;9.846;2022-12-07T04:52:51;13.18;;;3.88;;
20639;SDS011;10479;53.524;9.846;2022-12-07T04:55:21;13.63;;;3.10;;
20639;SDS011;10479;53.524;9.846;2022-12-07T04:58:00;13.95;;;3.38;;
20639;SDS011;10479;53.524;9.846;2022-12-07T05:00:27;10.82;;;3.35;;
20639;SDS011;10479;53.524;9.846;2022-12-07T05:02:53;9.80;;;3.15;;
20639;SDS011;10479;53.524;9.846;2022-12-07T05:05:19;10.95;;;3.80;;
20639;SDS011;10479;53.524;9.846;2022-12-07T05:07:49;11.63;;;3.33;;
20639;SDS011;10479;53.524;9.846;2022-12-07T05:10:19;10.57;;;3.67;;
20639;SDS011;10479;53.524;9.846;2022-12-07T05:12:52;13.75;;;3.53;;
20639;SDS011;10479;53.524;9.846;2022-12-07T05:15:20;9.98;;;3.15;;
20639;SDS011;10479;53.524;9.846;2022-12-07T05:17:52;9.90;;;4.15;;
20639;SDS011;10479;53.524;9.846;2022-12-07T05:20:18;12.52;;;4.30;;
20639;SDS011;10479;53.524;9.846;2022-12-07T05:22:54;11.32;;;4.30;;
20639;SDS011;10479;53.524;9.846;2022-12-07T05:25:20;10.63;;;4.63;;
20639;SDS011;10479;53.524;9.846;2022-12-07T05:27:50;10.18;;;3.40;;
20639;SDS011;10479;53.524;9.846;2022-12-07T05:30:16;10.32;;;3.55;;
20639;SDS011;10479;53.524;9.846;2022-12-07T05:33:02;11.40;;;3.75;;
20639;SDS011;10479;53.524;9.846;2022-12-07T05:35:48;11.93;;;3.75;;
20639;SDS011;10479;53.524;9.846;2022-12-07T05:38:13;11.60;;;3.35;;
20639;SDS011;10479;53.524;9.846;2022-12-07T05:40:44;8.77;;;3.17;;
20639;SDS011;10479;53.524;9.846;2022-12-07T05:43:30;10.95;;;3.60;;
20639;SDS011;10479;53.524;9.846;2022-12-07T05:46:16;10.35;;;3.40;;
20639;SDS011;10479;53.524;9.846;2022-12-07T05:48:42;12.52;;;3.45;;
20639;SDS011;10479;53.524;9.846;2022-12-07T05:51:15;12.40;;;3.10;;
20639;SDS011;10479;53.524;9.846;2022-12-07T05:53:40;11.45;;;3.85;;
20639;SDS011;10479;53.524;9.846;2022-12-07T05:56:11;9.45;;;3.80;;
20639;SDS011;10479;53.524;9.846;2022-12-07T05:58:47;8.52;;;2.80;;
20639;SDS011;10479;53.524;9.846;2022-12-07T06:01:43;12.98;;;3.40;;
20639;SDS011;10479;53.524;9.846;2022-12-07T06:04:11;13.85;;;3.83;;
20639;SDS011;10479;53.524;9.846;2022-12-07T06:09:16;11.55;;;3.95;;
20639;SDS011;10479;53.524;9.846;2022-12-07T06:12:03;8.40;;;3.83;;
20639;SDS011;10479;53.524;9.846;2022-12-07T06:14:50;15.85;;;4.72;;
20639;SDS011;10479;53.524;9.846;2022-12-07T06:17:17;18.25;;;4.28;;
20639;SDS011;10479;53.524;9.846;2022-12-07T06:20:03;13.82;;;4.50;;
20639;SDS011;10479;53.524;9.846;2022-12-07T06:22:34;11.85;;;3.30;;
20639;SDS011;10479;53.524;9.846;2022-12-07T06:25:11;9.88;;;3.58;;
20639;SDS011;10479;53.524;9.846;2022-12-07T06:27:46;9.23;;;3.88;;
20639;SDS011;10479;53.524;9.846;2022-12-07T06:30:13;10.93;;;3.35;;
20639;SDS011;10479;53.524;9.846;2022-12-07T06:32:59;9.55;;;3.17;;
20639;SDS011;10479;53.524;9.846;2022-12-07T06:35:31;8.15;;;3.20;;
20639;SDS011;10479;53.524;9.846;2022-12-07T06:38:11;10.82;;;3.92;;
20639;SDS011;10479;53.524;9.846;2022-12-07T06:40:39;9.15;;;3.22;;
20639;SDS011;10479;53.524;9.846;2022-12-07T06:43:15;11.80;;;3.22;;
20639;SDS011;10479;53.524;9.846;2022-12-07T06:45:42;11.15;;;3.33;;
20639;SDS011;10479;53.524;9.846;2022-12-07T06:48:28;12.18;;;3.20;;
20639;SDS011;10479;53.524;9.846;2022-12-07T06:50:56;10.13;;;3.28;;
20639;SDS011;10479;53.524;9.846;2022-12-07T06:53:27;8.02;;;2.97;;
20639;SDS011;10479;53.524;9.846;2022-12-07T06:56:00;11.18;;;3.67;;
20639;SDS011;10479;53.524;9.846;2022-12-07T06:58:32;11.27;;;3.58;;
20639;SDS011;10479;53.524;9.846;2022-12-07T07:01:14;12.57;;;3.38;;
20639;SDS011;10479;53.524;9.846;2022-12-07T07:04:01;10.73;;;4.18;;
20639;SDS011;10479;53.524;9.846;2022-12-07T07:06:46;12.82;;;3.28;;
20639;SDS011;10479;53.524;9.846;2022-12-07T07:09:13;15.82;;;3.38;;
20639;SDS011;10479;53.524;9.846;2022-12-07T07:11:39;11.43;;;4.20;;
20639;SDS011;10479;53.524;9.846;2022-12-07T07:14:25;10.50;;;3.25;;
20639;SDS011;10479;53.524;9.846;2022-12-07T07:16:57;13.73;;;3.67;;
20639;SDS011;10479;53.524;9.846;2022-12-07T07:19:43;10.70;;;3.40;;
20639;SDS011;10479;53.524;9.846;2022-12-07T07:22:12;11.30;;;3.63;;
20639;SDS011;10479;53.524;9.846;2022-12-07T07:24:58;6.85;;;2.58;;
20639;SDS011;10479;53.524;9.846;2022-12-07T07:27:43;12.15;;;3.50;;
20639;SDS011;10479;53.524;9.846;2022-12-07T07:30:09;10.13;;;2.50;;
20639;SDS011;10479;53.524;9.846;2022-12-07T07:32:58;9.68;;;2.90;;
20639;SDS011;10479;53.524;9.846;2022-12-07T07:35:29;9.20;;;2.83;;
20639;SDS011;10479;53.524;9.846;2022-12-07T07:38:03;11.52;;;5.47;;
20639;SDS011;10479;53.524;9.846;2022-12-07T07:40:48;9.27;;;3.00;;
20639;SDS011;10479;53.524;9.846;2022-12-07T07:43:34;9.40;;;2.75;;
20639;SDS011;10479;53.524;9.846;2022-12-07T07:46:01;6.93;;;2.38;;
20639;SDS011;10479;53.524;9.846;2022-12-07T07:48:37;10.60;;;2.53;;
20639;SDS011;10479;53.524;9.846;2022-12-07T07:51:05;9.52;;;2.88;;
20639;SDS011;10479;53.524;9.846;2022-12-07T07:53:38;7.68;;;2.85;;
20639;SDS011;10479;53.524;9.846;2022-12-07T07:56:15;9.15;;;2.63;;
20639;SDS011;10479;53.524;9.846;2022-12-07T07:59:00;6.80;;;2.70;;
20639;SDS011;10479;53.524;9.846;2022-12-07T08:01:40;11.85;;;2.45;;
20639;SDS011;10479;53.524;9.846;2022-12-07T08:04:10;9.00;;;3.13;;
20639;SDS011;10479;53.524;9.846;2022-12-07T08:06:56;7.25;;;2.65;;
20639;SDS011;10479;53.524;9.846;2022-12-07T08:09:22;11.32;;;2.88;;
20639;SDS011;10479;53.524;9.846;2022-12-07T08:11:52;9.40;;;2.90;;
20639;SDS011;10479;53.524;9.846;2022-12-07T08:14:24;12.07;;;2.83;;
20639;SDS011;10479;53.524;9.846;2022-12-07T08:17:10;9.10;;;2.58;;
20639;SDS011;10479;53.524;9.846;2022-12-07T08:19:56;9.55;;;2.58;;
20639;SDS011;10479;53.524;9.846;2022-12-07T08:22:22;8.93;;;2.45;;
20639;SDS011;10479;53.524;9.846;2022-12-07T08:24:48;9.70;;;2.38;;
20639;SDS011;10479;53.524;9.846;2022-12-07T08:27:18;10.75;;;2.45;;
20639;SDS011;10479;53.524;9.846;2022-12-07T08:29:48;8.90;;;2.42;;
20639;SDS011;10479;53.524;9.846;2022-12-07T08:32:18;8.35;;;2.40;;
20639;SDS011;10479;53.524;9.846;2022-12-07T08:34:44;8.10;;;2.65;;
20639;SDS011;10479;53.524;9.846;2022-12-07T08:37:15;12.75;;;3.15;;
20639;SDS011;10479;53.524;9.846;2022-12-07T08:39:52;11.70;;;3.42;;
20639;SDS011;10479;53.524;9.846;2022-12-07T08:42:26;10.52;;;2.80;;
20639;SDS011;10479;53.524;9.846;2022-12-07T08:44:59;12.75;;;3.35;;
20639;SDS011;10479;53.524;9.846;2022-12-07T08:47:26;11.48;;;3.05;;
20639;SDS011;10479;53.524;9.846;2022-12-07T08:49:58;14.30;;;2.93;;
20639;SDS011;10479;53.524;9.846;2022-12-07T08:52:35;10.07;;;2.53;;
20639;SDS011;10479;53.524;9.846;2022-12-07T08:55:08;7.78;;;2.60;;
20639;SDS011;10479;53.524;9.846;2022-12-07T08:57:54;11.68;;;3.28;;
20639;SDS011;10479;53.524;9.846;2022-12-07T09:00:41;12.88;;;3.20;;
20639;SDS011;10479;53.524;9.846;2022-12-07T09:03:20;14.40;;;3.50;;
20639;SDS011;10479;53.524;9.846;2022-12-07T09:06:01;9.10;;;2.50;;
20639;SDS011;10479;53.524;9.846;2022-12-07T09:08:46;15.35;;;2.83;;
20639;SDS011;10479;53.524;9.846;2022-12-07T09:11:33;10.50;;;2.55;;
20639;SDS011;10479;53.524;9.846;2022-12-07T09:14:02;17.73;;;3.05;;
20639;SDS011;10479;53.524;9.846;2022-12-07T09:16:29;13.52;;;2.60;;
20639;SDS011;10479;53.524;9.846;2022-12-07T09:19:14;9.18;;;2.60;;
20639;SDS011;10479;53.524;9.846;2022-12-07T09:22:00;11.43;;;2.50;;
20639;SDS011;10479;53.524;9.846;2022-12-07T09:24:45;11.05;;;2.33;;
20639;SDS011;10479;53.524;9.846;2022-12-07T09:27:18;7.75;;;2.25;;
20639;SDS011;10479;53.524;9.846;2022-12-07T09:29:48;17.70;;;2.78;;
20639;SDS011;10479;53.524;9.846;2022-12-07T09:32:34;8.95;;;1.75;;
20639;SDS011;10479;53.524;9.846;2022-12-07T09:35:19;6.75;;;1.63;;
20639;SDS011;10479;53.524;9.846;2022-12-07T09:37:50;12.63;;;1.98;;
20639;SDS011;10479;53.524;9.846;2022-12-07T09:40:36;7.18;;;1.70;;
20639;SDS011;10479;53.524;9.846;2022-12-07T09:43:22;8.98;;;1.50;;
20639;SDS011;10479;53.524;9.846;2022-12-07T09:46:10;6.90;;;1.23;;
20639;SDS011;10479;53.524;9.846;2022-12-07T09:48:41;11.07;;;1.30;;
20639;SDS011;10479;53.524;9.846;2022-12-07T09:51:22;10.75;;;1.30;;
20639;SDS011;10479;53.524;9.846;2022-12-07T09:53:55;7.50;;;1.50;;
20639;SDS011;10479;53.524;9.846;2022-12-07T09:56:33;13.75;;;1.73;;
20639;SDS011;10479;53.524;9.846;2022-12-07T09:59:12;8.93;;;1.00;;
20639;SDS011;10479;53.524;9.846;2022-12-07T10:01:46;6.18;;;0.68;;
20639;SDS011;10479;53.524;9.846;2022-12-07T10:04:33;7.38;;;0.80;;
20639;SDS011;10479;53.524;9.846;2022-12-07T10:07:07;8.18;;;1.08;;
20639;SDS011;10479;53.524;9.846;2022-12-07T10:09:36;6.68;;;0.82;;
20639;SDS011;10479;53.524;9.846;2022-12-07T10:12:05;3.22;;;0.70;;
20639;SDS011;10479;53.524;9.846;2022-12-07T10:15:02;4.28;;;0.60;;
20639;SDS011;10479;53.524;9.846;2022-12-07T10:17:35;6.13;;;0.70;;
20639;SDS011;10479;53.524;9.846;2022-12-07T10:20:22;6.93;;;0.70;;
20639;SDS011;10479;53.524;9.846;2022-12-07T10:23:13;5.10;;;0.80;;
20639;SDS011;10479;53.524;9.846;2022-12-07T10:25:45;7.47;;;0.70;;
20639;SDS011;10479;53.524;9.846;2022-12-07T10:28:33;4.88;;;0.70;;
20639;SDS011;10479;53.524;9.846;2022-12-07T10:31:15;6.20;;;0.50;;
20639;SDS011;10479;53.524;9.846;2022-12-07T10:33:59;6.05;;;0.80;;
20639;SDS011;10479;53.524;9.846;2022-12-07T10:36:38;3.42;;;0.65;;
20639;SDS011;10479;53.524;9.846;2022-12-07T10:39:23;6.50;;;0.68;;
20639;SDS011;10479;53.524;9.846;2022-12-07T10:42:18;9.93;;;1.05;;
20639;SDS011;10479;53.524;9.846;2022-12-07T10:59:19;5.43;;;0.70;;
20639;SDS011;10479;53.524;9.846;2022-12-07T11:05:48;4.95;;;0.80;;
20639;SDS011;10479;53.524;9.846;2022-12-07T11:08:37;6.28;;;0.63;;
20639;SDS011;10479;53.524;9.846;2022-12-07T11:11:16;11.57;;;0.90;;
20639;SDS011;10479;53.524;9.846;2022-12-07T11:14:28;3.30;;;0.65;;
20639;SDS011;10479;53.524;9.846;2022-12-07T11:17:23;8.38;;;1.35;;
20639;SDS011;10479;53.524;9.846;2022-12-07T11:20:27;9.00;;;1.10;;
20639;SDS011;10479;53.524;9.846;2022-12-07T11:30:08;8.70;;;1.33;;
20639;SDS011;10479;53.524;9.846;2022-12-07T11:39:22;10.52;;;0.70;;
20639;SDS011;10479;53.524;9.846;2022-12-07T11:42:12;10.88;;;0.90;;
20639;SDS011;10479;53.524;9.846;2022-12-07T11:45:01;9.80;;;1.37;;
20639;SDS011;10479;53.524;9.846;2022-12-07T11:47:58;7.27;;;0.80;;
20639;SDS011;10479;53.524;9.846;2022-12-07T11:50:47;10.60;;;1.17;;
20639;SDS011;10479;53.524;9.846;2022-12-07T11:53:35;9.27;;;1.20;;
20639;SDS011;10479;53.524;9.846;2022-12-07T11:56:23;5.65;;;1.00;;
20639;SDS011;10479;53.524;9.846;2022-12-07T12:05:16;8.93;;;1.23;;
20639;SDS011;10479;53.524;9.846;2022-12-07T12:14:03;7.85;;;1.02;;
20639;SDS011;10479;53.524;9.846;2022-12-07T12:20:19;10.02;;;1.30;;
20639;SDS011;10479;53.524;9.846;2022-12-07T12:26:20;6.88;;;0.98;;
20639;SDS011;10479;53.524;9.846;2022-12-07T12:29:13;5.35;;;0.80;;
20639;SDS011;10479;53.524;9.846;2022-12-07T12:38:26;9.15;;;0.80;;
20639;SDS011;10479;53.524;9.846;2022-12-07T12:41:12;7.57;;;0.98;;
20639;SDS011;10479;53.524;9.846;2022-12-07T12:47:54;8.25;;;1.33;;
20639;SDS011;10479;53.524;9.846;2022-12-07T12:53:24;11.55;;;1.23;;
20639;SDS011;10479;53.524;9.846;2022-12-07T13:02:16;8.50;;;1.38;;
20639;SDS011;10479;53.524;9.846;2022-12-07T13:05:28;9.55;;;1.60;;
20639;SDS011;10479;53.524;9.846;2022-12-07T13:07:57;8.35;;;1.20;;
20639;SDS011;10479;53.524;9.846;2022-12-07T13:10:41;8.75;;;1.00;;
20639;SDS011;10479;53.524;9.846;2022-12-07T13:13:29;7.50;;;0.90;;
20639;SDS011;10479;53.524;9.846;2022-12-07T13:16:37;10.85;;;1.00;;
20639;SDS011;10479;53.524;9.846;2022-12-07T13:21:50;5.13;;;0.85;;
20639;SDS011;10479;53.524;9.846;2022-12-07T13:24:35;11.30;;;1.33;;
20639;SDS011;10479;53.524;9.846;2022-12-07T13:27:21;9.55;;;1.00;;
20639;SDS011;10479;53.524;9.846;2022-12-07T13:29:54;12.27;;;1.35;;
20639;SDS011;10479;53.524;9.846;2022-12-07T13:32:41;10.98;;;1.17;;
20639;SDS011;10479;53.524;9.846;2022-12-07T13:38:31;15.73;;;1.27;;
20639;SDS011;10479;53.524;9.846;2022-12-07T13:41:19;10.23;;;1.10;;
20639;SDS011;10479;53.524;9.846;2022-12-07T13:44:00;13.18;;;1.50;;
20639;SDS011;10479;53.524;9.846;2022-12-07T13:47:18;5.47;;;1.10;;
20639;SDS011;10479;53.524;9.846;2022-12-07T13:53:12;6.18;;;1.30;;
20639;SDS011;10479;53.524;9.846;2022-12-07T13:55:54;4.68;;;1.23;;
20639;SDS011;10479;53.524;9.846;2022-12-07T13:58:40;11.18;;;1.20;;
20639;SDS011;10479;53.524;9.846;2022-12-07T14:01:24;8.43;;;1.15;;
20639;SDS011;10479;53.524;9.846;2022-12-07T14:04:17;12.25;;;1.73;;
20639;SDS011;10479;53.524;9.846;2022-12-07T14:07:22;7.22;;;1.17;;
20639;SDS011;10479;53.524;9.846;2022-12-07T14:10:00;8.90;;;1.50;;
20639;SDS011;10479;53.524;9.846;2022-12-07T14:12:48;11.07;;;1.83;;
20639;SDS011;10479;53.524;9.846;2022-12-07T14:15:34;8.95;;;1.10;;
20639;SDS011;10479;53.524;9.846;2022-12-07T14:24:12;6.45;;;0.70;;
20639;SDS011;10479;53.524;9.846;2022-12-07T14:27:02;7.50;;;0.88;;
20639;SDS011;10479;53.524;9.846;2022-12-07T14:29:47;6.07;;;0.85;;
20639;SDS011;10479;53.524;9.846;2022-12-07T14:32:28;4.65;;;0.70;;
20639;SDS011;10479;53.524;9.846;2022-12-07T14:35:15;3.83;;;0.90;;
20639;SDS011;10479;53.524;9.846;2022-12-07T14:38:02;6.00;;;0.80;;
20639;SDS011;10479;53.524;9.846;2022-12-07T14:40:47;9.15;;;0.70;;
20639;SDS011;10479;53.524;9.846;2022-12-07T14:43:33;6.40;;;0.80;;
20639;SDS011;10479;53.524;9.846;2022-12-07T14:46:18;5.90;;;0.73;;
20639;SDS011;10479;53.524;9.846;2022-12-07T14:49:04;7.65;;;0.80;;
20639;SDS011;10479;53.524;9.846;2022-12-07T14:51:50;6.28;;;0.70;;
20639;SDS011;10479;53.524;9.846;2022-12-07T14:54:35;7.13;;;1.02;;
20639;SDS011;10479;53.524;9.846;2022-12-07T14:57:23;8.15;;;1.35;;
20639;SDS011;10479;53.524;9.846;2022-12-07T15:00:02;6.10;;;0.75;;
20639;SDS011;10479;53.524;9.846;2022-12-07T15:02:48;8.23;;;0.75;;
20639;SDS011;10479;53.524;9.846;2022-12-07T15:05:34;6.10;;;0.90;;
20639;SDS011;10479;53.524;9.846;2022-12-07T15:08:20;4.10;;;0.55;;
20639;SDS011;10479;53.524;9.846;2022-12-07T15:11:05;4.85;;;0.50;;
20639;SDS011;10479;53.524;9.846;2022-12-07T15:13:51;4.97;;;0.80;;
20639;SDS011;10479;53.524;9.846;2022-12-07T15:16:56;6.72;;;0.70;;
20639;SDS011;10479;53.524;9.846;2022-12-07T15:19:42;3.78;;;0.60;;
20639;SDS011;10479;53.524;9.846;2022-12-07T15:22:27;7.65;;;0.85;;
20639;SDS011;10479;53.524;9.846;2022-12-07T15:25:14;3.03;;;0.63;;
20639;SDS011;10479;53.524;9.846;2022-12-07T15:28:00;3.85;;;0.65;;
20639;SDS011;10479;53.524;9.846;2022-12-07T15:30:36;5.85;;;0.90;;
20639;SDS011;10479;53.524;9.846;2022-12-07T15:33:22;9.57;;;0.80;;
20639;SDS011;10479;53.524;9.846;2022-12-07T15:36:07;7.35;;;0.90;;
20639;SDS011;10479;53.524;9.846;2022-12-07T15:38:47;4.05;;;0.70;;
20639;SDS011;10479;53.524;9.846;2022-12-07T15:41:33;9.07;;;0.68;;
20639;SDS011;10479;53.524;9.846;2022-12-07T15:44:20;12.73;;;0.88;;
20639;SDS011;10479;53.524;9.846;2022-12-07T15:47:24;6.22;;;0.73;;
20639;SDS011;10479;53.524;9.846;2022-12-07T15:50:11;6.45;;;0.70;;
20639;SDS011;10479;53.524;9.846;2022-12-07T15:52:58;8.40;;;1.40;;
20639;SDS011;10479;53.524;9.846;2022-12-07T15:55:38;8.45;;;1.17;;
20639;SDS011;10479;53.524;9.846;2022-12-07T15:58:25;8.43;;;0.88;;
20639;SDS011;10479;53.524;9.846;2022-12-07T16:01:13;8.55;;;0.95;;
20639;SDS011;10479;53.524;9.846;2022-12-07T16:03:59;8.38;;;1.33;;
20639;SDS011;10479;53.524;9.846;2022-12-07T16:06:45;9.50;;;0.98;;
20639;SDS011;10479;53.524;9.846;2022-12-07T16:09:28;5.20;;;0.73;;
20639;SDS011;10479;53.524;9.846;2022-12-07T16:12:13;4.45;;;0.60;;
20639;SDS011;10479;53.524;9.846;2022-12-07T16:14:59;4.75;;;0.80;;
20639;SDS011;10479;53.524;9.846;2022-12-07T16:17:44;5.30;;;1.48;;
20639;SDS011;10479;53.524;9.846;2022-12-07T16:20:27;8.77;;;1.40;;
20639;SDS011;10479;53.524;9.846;2022-12-07T16:23:12;7.25;;;2.28;;
20639;SDS011;10479;53.524;9.846;2022-12-07T16:26:08;5.70;;;1.73;;
20639;SDS011;10479;53.524;9.846;2022-12-07T16:28:55;7.80;;;2.22;;
20639;SDS011;10479;53.524;9.846;2022-12-07T16:31:41;8.75;;;2.08;;
20639;SDS011;10479;53.524;9.846;2022-12-07T16:34:26;10.02;;;2.70;;
20639;SDS011;10479;53.524;9.846;2022-12-07T16:37:11;8.10;;;1.95;;
20639;SDS011;10479;53.524;9.846;2022-12-07T16:39:57;8.88;;;2.20;;
20639;SDS011;10479;53.524;9.846;2022-12-07T16:42:42;7.28;;;1.65;;
20639;SDS011;10479;53.524;9.846;2022-12-07T16:45:18;5.50;;;1.40;;
20639;SDS011;10479;53.524;9.846;2022-12-07T16:48:01;5.78;;;2.13;;
20639;SDS011;10479;53.524;9.846;2022-12-07T16:50:47;13.57;;;3.25;;
20639;SDS011;10479;53.524;9.846;2022-12-07T16:53:32;10.63;;;2.53;;
20639;SDS011;10479;53.524;9.846;2022-12-07T16:56:18;9.18;;;3.00;;
20639;SDS011;10479;53.524;9.846;2022-12-07T16:58:57;11.80;;;3.22;;
20639;SDS011;10479;53.524;9.846;2022-12-07T17:01:43;10.77;;;3.05;;
20639;SDS011;10479;53.524;9.846;2022-12-07T17:04:29;13.45;;;2.67;;
20639;SDS011;10479;53.524;9.846;2022-12-07T17:07:14;9.30;;;2.60;;
20639;SDS011;10479;53.524;9.846;2022-12-07T17:10:00;10.82;;;2.35;;
20639;SDS011;10479;53.524;9.846;2022-12-07T17:12:45;10.55;;;3.33;;
20639;SDS011;10479;53.524;9.846;2022-12-07T17:15:31;11.82;;;3.50;;
20639;SDS011;10479;53.524;9.846;2022-12-07T17:18:16;14.57;;;4.68;;
20639;SDS011;10479;53.524;9.846;2022-12-07T17:21:05;14.45;;;4.55;;
20639;SDS011;10479;53.524;9.846;2022-12-07T17:23:48;16.52;;;3.53;;
20639;SDS011;10479;53.524;9.846;2022-12-07T17:26:31;15.30;;;3.78;;
20639;SDS011;10479;53.524;9.846;2022-12-07T17:29:17;17.30;;;3.75;;
20639;SDS011;10479;53.524;9.846;2022-12-07T17:32:03;15.05;;;3.33;;
20639;SDS011;10479;53.524;9.846;2022-12-07T17:34:48;10.27;;;3.63;;
20639;SDS011;10479;53.524;9.846;2022-12-07T17:37:34;12.25;;;3.53;;
20639;SDS011;10479;53.524;9.846;2022-12-07T17:40:19;14.75;;;4.82;;
20639;SDS011;10479;53.524;9.846;2022-12-07T17:43:03;17.55;;;5.10;;
20639;SDS011;10479;53.524;9.846;2022-12-07T17:45:45;11.55;;;4.55;;
20639;SDS011;10479;53.524;9.846;2022-12-07T17:48:22;12.18;;;4.30;;
20639;SDS011;10479;53.524;9.846;2022-12-07T17:51:08;14.40;;;4.32;;
20639;SDS011;10479;53.524;9.846;2022-12-07T17:54:12;20.90;;;4.78;;
20639;SDS011;10479;53.524;9.846;2022-12-07T17:56:51;9.07;;;3.85;;
20639;SDS011;10479;53.524;9.846;2022-12-07T17:59:35;17.17;;;4.68;;
20639;SDS011;10479;53.524;9.846;2022-12-07T18:02:16;11.68;;;4.20;;
20639;SDS011;10479;53.524;9.846;2022-12-07T18:04:58;10.93;;;3.95;;